Time;durP1;ratioP1;P1;durP2;ratioP2;P2;SDS_P1;SDS_P2;PMS_P1;PMS_P2;Temp;Humidity;BMP_temperature;BMP_pressure;BME280_temperature;BME280_humidity;BME280_pressure;Samples;Min_cycle;Max_cycle;Signal;HPM_P1;HPM_P2
2021/06/24 00:00:53;;;;;;;24.13;21.73;;;21.00;99.90;;;;;;4989701;28;20208;-83
2021/06/24 00:03:24;;;;;;;25.27;22.77;;;21.00;99.90;;;;;;4965821;28;20268;-82
2021/06/24 00:05:54;;;;;;;24.87;22.30;;;21.00;99.90;;;;;;4971051;28;20550;-85
2021/06/24 00:08:23;;;;;;;27.10;24.20;;;20.90;99.90;;;;;;4968847;28;20559;-83
2021/06/24 00:10:55;;;;;;;25.60;22.90;;;20.90;99.90;;;;;;4961558;28;20216;-86
2021/06/24 00:13:25;;;;;;;25.30;22.80;;;20.90;99.90;;;;;;4961991;28;20267;-85
2021/06/24 00:15:54;;;;;;;26.13;23.47;;;20.90;99.90;;;;;;4968271;28;20217;-85
2021/06/24 00:18:23;;;;;;;26.80;24.07;;;20.80;99.90;;;;;;4974540;28;20287;-82
2021/06/24 00:20:53;;;;;;;27.33;24.43;;;20.80;99.90;;;;;;4964797;28;20220;-83
2021/06/24 00:23:24;;;;;;;26.47;23.40;;;20.80;99.90;;;;;;4963370;28;20201;-84
2021/06/24 00:25:55;;;;;;;26.60;23.47;;;20.70;99.90;;;;;;4966663;28;20230;-83
2021/06/24 00:28:27;;;;;;;29.10;25.73;;;20.70;99.90;;;;;;4949224;28;20217;-83
2021/06/24 00:30:58;;;;;;;27.20;24.33;;;20.70;99.90;;;;;;4967667;28;20212;-85
2021/06/24 00:33:27;;;;;;;28.80;25.83;;;20.70;99.90;;;;;;4963516;28;20217;-83
2021/06/24 00:35:56;;;;;;;26.87;23.97;;;20.70;99.90;;;;;;4974995;28;20752;-84
2021/06/24 00:38:25;;;;;;;29.07;25.30;;;20.70;99.90;;;;;;4971096;28;20813;-84
2021/06/24 00:40:58;;;;;;;28.87;25.73;;;20.70;99.90;;;;;;4976136;28;20861;-84
2021/06/24 00:43:28;;;;;;;27.13;24.30;;;20.70;99.90;;;;;;4969254;28;20483;-84
2021/06/24 00:45:57;;;;;;;26.83;24.07;;;20.70;99.90;;;;;;4958882;28;20236;-85
2021/06/24 00:48:27;;;;;;;28.30;25.10;;;20.70;99.90;;;;;;4960010;28;20216;-85
2021/06/24 00:50:59;;;;;;;28.20;25.20;;;20.60;99.90;;;;;;4966730;28;20213;-85
2021/06/24 00:53:28;;;;;;;27.07;24.20;;;20.60;99.90;;;;;;4970037;28;20212;-84
2021/06/24 00:55:59;;;;;;;27.30;24.00;;;20.60;99.90;;;;;;4986798;28;20216;-83
2021/06/24 00:58:28;;;;;;;29.03;25.30;;;20.50;99.90;;;;;;4963358;28;20670;-85
2021/06/24 01:00:59;;;;;;;30.07;25.70;;;20.50;99.90;;;;;;4971427;28;20267;-83
2021/06/24 01:03:27;;;;;;;27.60;24.70;;;20.60;99.90;;;;;;4969336;28;20209;-83
2021/06/24 01:05:56;;;;;;;26.50;23.73;;;20.60;99.90;;;;;;4984076;28;20244;-84
2021/06/24 01:08:29;;;;;;;28.20;25.07;;;20.60;99.90;;;;;;4981429;28;20201;-84
2021/06/24 01:10:59;;;;;;;27.70;24.77;;;20.50;99.90;;;;;;4960140;28;20407;-85
2021/06/24 01:13:29;;;;;;;30.47;25.67;;;20.50;99.90;;;;;;4964266;28;20383;-84
2021/06/24 01:15:58;;;;;;;27.57;24.67;;;20.50;99.90;;;;;;4959263;28;20666;-88
2021/06/24 01:18:26;;;;;;;28.20;23.67;;;20.50;99.90;;;;;;4958055;28;20203;-86
2021/06/24 01:20:55;;;;;;;28.97;25.47;;;20.50;99.90;;;;;;4966733;28;20217;-83
2021/06/24 01:23:24;;;;;;;29.57;25.83;;;20.40;99.90;;;;;;4971407;28;20201;-82
2021/06/24 01:25:54;;;;;;;30.77;25.90;;;20.40;99.90;;;;;;4983886;28;20244;-82
2021/06/24 01:28:23;;;;;;;29.30;26.13;;;20.40;99.90;;;;;;4978344;28;20480;-83
2021/06/24 01:30:51;;;;;;;27.70;24.73;;;20.30;99.90;;;;;;4976607;28;20217;-82
2021/06/24 01:33:20;;;;;;;28.27;24.87;;;20.30;99.90;;;;;;4972462;28;20320;-83
2021/06/24 01:35:49;;;;;;;28.90;25.90;;;20.30;99.90;;;;;;4974882;28;20205;-85
2021/06/24 01:38:18;;;;;;;29.07;25.90;;;20.30;99.90;;;;;;4968592;28;20197;-85
2021/06/24 01:40:46;;;;;;;30.17;26.93;;;20.30;99.90;;;;;;4963800;28;20263;-85
2021/06/24 01:43:26;;;;;;;27.93;24.93;;;20.30;99.90;;;;;;4968412;28;20200;-83
2021/06/24 01:45:57;;;;;;;28.40;24.47;;;20.30;99.90;;;;;;4961304;28;20721;-84
2021/06/24 01:48:27;;;;;;;27.70;24.80;;;20.30;99.90;;;;;;4965416;28;20262;-84
2021/06/24 01:50:58;;;;;;;27.60;24.70;;;20.30;99.90;;;;;;4974867;28;20225;-83
2021/06/24 01:53:27;;;;;;;26.37;23.57;;;20.20;99.90;;;;;;4961943;28;20987;-83
2021/06/24 01:55:57;;;;;;;26.10;23.53;;;20.20;99.90;;;;;;4971746;28;20979;-83
2021/06/24 01:58:29;;;;;;;24.63;22.03;;;20.10;99.90;;;;;;4963445;28;20287;-83
2021/06/24 02:01:01;;;;;;;26.47;23.73;;;20.10;99.90;;;;;;4959664;28;20272;-84
2021/06/24 02:03:33;;;;;;;25.67;23.00;;;20.10;99.90;;;;;;4968650;28;20260;-84
2021/06/24 02:06:02;;;;;;;28.10;24.50;;;20.00;99.90;;;;;;4958986;28;20236;-85
2021/06/24 02:08:32;;;;;;;28.13;23.87;;;19.90;99.90;;;;;;4959550;28;20613;-84
2021/06/24 02:11:01;;;;;;;28.07;25.07;;;19.90;99.90;;;;;;4956336;28;20212;-85
2021/06/24 02:13:31;;;;;;;28.60;25.57;;;19.90;99.90;;;;;;4989277;28;20201;-83
2021/06/24 02:16:00;;;;;;;30.07;26.87;;;19.80;99.90;;;;;;4981301;28;20197;-83
2021/06/24 02:18:28;;;;;;;28.03;25.13;;;19.70;99.90;;;;;;4975707;28;20613;-84
2021/06/24 02:20:57;;;;;;;31.73;27.37;;;19.70;99.90;;;;;;4979351;28;20189;-85
2021/06/24 02:23:26;;;;;;;31.60;28.30;;;19.60;99.90;;;;;;4965366;28;20751;-84
2021/06/24 02:25:55;;;;;;;28.73;25.73;;;19.60;99.90;;;;;;4967845;28;21064;-85
2021/06/24 02:28:24;;;;;;;27.17;24.37;;;19.70;99.90;;;;;;4967045;28;20207;-86
2021/06/24 02:30:54;;;;;;;31.33;26.73;;;19.70;99.90;;;;;;4981605;28;21031;-85
2021/06/24 02:33:22;;;;;;;31.40;27.93;;;19.70;99.90;;;;;;4960811;28;20255;-84
2021/06/24 02:35:57;;;;;;;31.63;28.17;;;19.80;99.90;;;;;;4961612;28;20201;-83
2021/06/24 02:38:26;;;;;;;31.47;28.07;;;19.90;99.90;;;;;;4978401;28;20212;-83
2021/06/24 02:40:55;;;;;;;35.23;28.87;;;19.90;99.90;;;;;;4969416;28;20216;-82
2021/06/24 02:43:24;;;;;;;32.60;28.00;;;19.90;99.90;;;;;;4961830;28;20212;-85
2021/06/24 02:45:55;;;;;;;29.67;26.67;;;19.90;99.90;;;;;;4946562;28;20224;-84
2021/06/24 02:48:24;;;;;;;30.93;27.57;;;19.90;99.90;;;;;;4954693;28;20208;-85
2021/06/24 02:50:53;;;;;;;31.10;27.60;;;19.90;99.90;;;;;;4962994;28;20233;-83
2021/06/24 02:53:21;;;;;;;31.67;28.33;;;20.00;99.90;;;;;;4957803;28;20309;-84
2021/06/24 02:55:50;;;;;;;31.60;27.93;;;20.00;99.90;;;;;;4958070;28;20204;-85
2021/06/24 02:58:19;;;;;;;34.50;27.60;;;20.10;99.90;;;;;;4958236;28;20283;-85
2021/06/24 03:00:47;;;;;;;33.07;29.13;;;20.10;99.90;;;;;;4975084;28;20205;-84
2021/06/24 03:03:18;;;;;;;36.93;29.40;;;20.20;99.90;;;;;;4967126;28;20278;-84
2021/06/24 03:05:47;;;;;;;30.80;27.43;;;20.20;99.90;;;;;;4958763;28;20205;-83
2021/06/24 03:08:15;;;;;;;31.50;26.87;;;20.30;99.90;;;;;;4959054;28;21573;-84
2021/06/24 03:10:45;;;;;;;32.33;28.10;;;20.30;99.90;;;;;;4957671;28;20671;-85
2021/06/24 03:13:13;;;;;;;33.53;28.13;;;20.30;99.90;;;;;;4954783;28;20244;-87
2021/06/24 03:15:44;;;;;;;29.93;26.70;;;20.40;99.90;;;;;;4962820;28;21430;-83
2021/06/24 03:18:12;;;;;;;33.87;27.63;;;20.40;99.90;;;;;;4961002;28;20475;-85
2021/06/24 03:20:43;;;;;;;31.67;28.00;;;20.40;99.90;;;;;;4985436;28;20204;-84
2021/06/24 03:23:12;;;;;;;32.43;28.57;;;20.50;99.90;;;;;;4982886;28;20185;-83
2021/06/24 03:25:42;;;;;;;31.80;27.27;;;20.60;99.90;;;;;;4961087;28;20568;-84
2021/06/24 03:28:11;;;;;;;33.77;28.27;;;20.60;99.90;;;;;;4966925;28;20227;-86
2021/06/24 03:30:40;;;;;;;32.50;28.13;;;20.60;99.90;;;;;;4955354;28;20211;-85
2021/06/24 03:33:10;;;;;;;31.20;28.03;;;20.60;99.90;;;;;;4967593;28;20211;-84
2021/06/24 03:35:38;;;;;;;33.00;29.33;;;20.60;99.90;;;;;;4958871;28;20308;-82
2021/06/24 03:38:08;;;;;;;33.50;27.90;;;20.70;99.90;;;;;;4959261;28;20204;-83
2021/06/24 03:40:37;;;;;;;32.13;28.43;;;20.70;99.90;;;;;;4985025;28;20204;-85
2021/06/24 03:43:06;;;;;;;33.07;29.57;;;20.80;99.90;;;;;;4983858;28;20184;-84
2021/06/24 03:45:35;;;;;;;30.93;27.40;;;20.90;99.90;;;;;;4984220;28;20970;-86
2021/06/24 03:48:07;;;;;;;32.85;28.63;;;21.00;99.90;;;;;;4981405;28;20229;-87
2021/06/24 03:50:37;;;;;;;33.67;29.40;;;21.00;99.90;;;;;;4975930;28;20228;-84
2021/06/24 03:53:08;;;;;;;31.53;28.27;;;21.00;99.90;;;;;;4978627;28;20211;-85
2021/06/24 03:55:37;;;;;;;32.37;29.07;;;20.90;99.90;;;;;;4976980;28;20224;-84
2021/06/24 03:58:08;;;;;;;32.40;28.10;;;20.90;99.90;;;;;;4981843;28;20204;-87
2021/06/24 04:00:38;;;;;;;39.47;29.67;;;20.90;99.90;;;;;;4975801;28;20229;-87
2021/06/24 04:03:08;;;;;;;32.73;29.23;;;21.00;99.90;;;;;;4985696;28;20239;-86
2021/06/24 04:05:37;;;;;;;32.57;29.30;;;21.00;99.90;;;;;;4943967;28;20208;-88
2021/06/24 04:08:09;;;;;;;34.93;29.80;;;21.00;99.90;;;;;;4942155;28;20225;-83
2021/06/24 04:10:58;;;;;;;32.90;29.57;;;21.10;99.90;;;;;;4975823;28;20734;-83
2021/06/24 04:13:26;;;;;;;34.03;30.50;;;21.10;99.90;;;;;;4968677;28;20221;-85
2021/06/24 04:15:55;;;;;;;32.93;29.37;;;21.20;99.90;;;;;;4963416;28;20243;-87
2021/06/24 04:18:24;;;;;;;35.20;30.83;;;21.10;99.90;;;;;;4957282;28;20349;-86
2021/06/24 04:20:53;;;;;;;34.13;29.90;;;21.10;99.90;;;;;;4961302;28;20211;-84
2021/06/24 04:23:23;;;;;;;34.60;30.83;;;21.10;99.90;;;;;;4967225;28;21813;-84
2021/06/24 04:25:52;;;;;;;34.00;30.30;;;21.10;99.90;;;;;;4968612;28;20205;-83
2021/06/24 04:28:21;;;;;;;35.73;30.80;;;21.10;99.90;;;;;;4986606;28;20212;-86
2021/06/24 04:30:49;;;;;;;34.13;29.33;;;21.20;99.90;;;;;;4965026;28;20826;-84
2021/06/24 04:33:19;;;;;;;33.30;29.80;;;21.10;99.90;;;;;;4967298;28;20279;-84
2021/06/24 04:35:47;;;;;;;31.57;28.27;;;21.20;99.90;;;;;;4962924;28;20201;-85
2021/06/24 04:38:16;;;;;;;33.00;28.63;;;21.20;99.90;;;;;;4965385;28;20209;-87
2021/06/24 04:40:47;;;;;;;32.77;27.53;;;21.20;99.90;;;;;;4970671;28;20205;-85
2021/06/24 04:43:15;;;;;;;31.33;27.75;;;21.20;99.90;;;;;;4966723;28;20205;-85
2021/06/24 04:45:44;;;;;;;30.40;27.17;;;21.30;99.90;;;;;;4974716;28;20251;-85
2021/06/24 04:48:13;;;;;;;32.20;26.38;;;21.20;99.90;;;;;;4981644;28;20270;-83
2021/06/24 04:50:45;;;;;;;29.75;26.52;;;21.20;99.90;;;;;;4982557;28;20246;-84
2021/06/24 04:53:13;;;;;;;28.98;25.88;;;21.10;99.90;;;;;;4985067;28;20197;-84
2021/06/24 04:55:43;;;;;;;30.07;26.87;;;21.00;99.90;;;;;;4972687;28;20217;-83
2021/06/24 04:58:14;;;;;;;30.57;25.83;;;21.00;99.90;;;;;;4960841;28;20301;-84
2021/06/24 05:00:44;;;;;;;27.95;24.80;;;21.10;99.90;;;;;;4957884;28;20807;-83
2021/06/24 05:03:16;;;;;;;28.75;24.00;;;21.10;99.90;;;;;;4958387;28;20224;-85
2021/06/24 05:05:47;;;;;;;28.40;25.40;;;21.10;99.90;;;;;;4959384;28;20201;-84
2021/06/24 05:08:17;;;;;;;30.80;23.53;;;21.20;99.90;;;;;;4961687;28;20797;-84
2021/06/24 05:10:46;;;;;;;26.88;22.50;;;21.00;99.90;;;;;;4967743;28;20196;-83
2021/06/24 05:13:17;;;;;;;25.17;22.47;;;21.20;99.90;;;;;;4976143;28;20272;-87
2021/06/24 05:15:46;;;;;;;25.40;22.30;;;21.30;99.90;;;;;;4974360;28;20239;-85
2021/06/24 05:18:15;;;;;;;25.20;22.70;;;21.40;99.90;;;;;;4959604;28;20205;-83
2021/06/24 05:20:46;;;;;;;26.30;22.15;;;21.60;99.90;;;;;;4963265;28;20913;-85
2021/06/24 05:23:16;;;;;;;24.52;21.50;;;21.70;99.90;;;;;;4966215;28;20259;-87
2021/06/24 05:25:48;;;;;;;27.45;20.70;;;21.90;99.90;;;;;;4974381;28;20193;-86
2021/06/24 05:28:19;;;;;;;28.52;19.90;;;22.00;99.90;;;;;;4981510;28;20208;-85
2021/06/24 05:30:49;;;;;;;25.63;20.13;;;22.00;99.60;;;;;;4979932;28;20204;-83
2021/06/24 05:33:17;;;;;;;26.35;19.95;;;22.10;99.10;;;;;;4971215;28;20205;-82
2021/06/24 05:35:48;;;;;;;22.52;19.85;;;22.30;98.50;;;;;;4979607;28;20196;-83
2021/06/24 05:38:18;;;;;;;25.02;19.63;;;22.50;98.90;;;;;;4974935;28;20437;-88
2021/06/24 05:40:50;;;;;;;20.27;18.23;;;22.80;97.90;;;;;;4972887;28;20204;-87
2021/06/24 05:43:23;;;;;;;20.77;18.58;;;22.90;95.90;;;;;;4965523;28;20212;-88
2021/06/24 05:45:52;;;;;;;19.73;17.63;;;23.00;96.10;;;;;;4963223;28;20229;-86
2021/06/24 05:48:21;;;;;;;18.80;16.80;;;23.20;95.40;;;;;;4966364;28;21201;-86
2021/06/24 05:50:53;;;;;;;18.55;16.60;;;23.30;94.00;;;;;;4963285;28;20911;-85
2021/06/24 05:53:22;;;;;;;19.08;16.60;;;23.20;94.10;;;;;;4969197;28;20213;-83
2021/06/24 05:55:55;;;;;;;17.40;15.65;;;23.00;94.90;;;;;;4972323;28;20232;-83
2021/06/24 05:58:28;;;;;;;19.67;17.58;;;22.90;95.40;;;;;;4965746;28;20750;-87
2021/06/24 06:00:59;;;;;;;17.95;16.30;;;22.80;96.40;;;;;;4966450;28;20239;-85
2021/06/24 06:03:29;;;;;;;19.52;17.63;;;23.10;96.20;;;;;;4967595;28;20235;-85
2021/06/24 06:05:57;;;;;;;20.83;17.90;;;23.40;94.40;;;;;;4940013;28;20595;-86
2021/06/24 06:08:27;;;;;;;17.58;15.80;;;23.30;95.50;;;;;;4961700;28;21058;-86
2021/06/24 06:10:57;;;;;;;19.10;16.85;;;23.40;94.90;;;;;;4958239;28;20237;-85
2021/06/24 06:13:29;;;;;;;17.30;15.73;;;23.60;94.30;;;;;;4957045;28;20275;-85
2021/06/24 06:15:57;;;;;;;17.75;15.55;;;23.80;93.70;;;;;;4949203;28;20469;-86
2021/06/24 06:18:27;;;;;;;17.92;16.27;;;24.00;93.70;;;;;;4953619;28;20209;-85
2021/06/24 06:20:57;;;;;;;17.90;15.43;;;24.20;93.10;;;;;;4938749;28;20698;-84
2021/06/24 06:23:29;;;;;;;18.95;17.00;;;24.20;92.70;;;;;;4894429;28;20437;-85
2021/06/24 06:25:58;;;;;;;17.35;15.57;;;24.00;93.70;;;;;;4852556;28;20221;-86
2021/06/24 06:28:29;;;;;;;16.75;15.05;;;24.30;92.70;;;;;;4650706;28;22000;-85
2021/06/24 06:30:59;;;;;;;21.70;15.30;;;24.40;92.50;;;;;;4726482;28;20730;-85
2021/06/24 06:33:29;;;;;;;16.73;15.07;;;24.20;93.10;;;;;;4844051;29;20536;-87
2021/06/24 06:35:58;;;;;;;19.50;14.88;;;24.10;93.50;;;;;;4884993;28;20209;-85
2021/06/24 06:38:30;;;;;;;16.05;14.45;;;24.00;93.90;;;;;;4926863;28;20214;-85
2021/06/24 06:41:08;;;;;;;19.35;15.35;;;23.70;93.90;;;;;;4932283;28;20223;-85
2021/06/24 06:43:38;;;;;;;19.95;15.48;;;23.50;94.80;;;;;;4939797;28;20200;-86
2021/06/24 06:46:08;;;;;;;18.00;14.55;;;23.40;94.50;;;;;;4933918;28;20229;-84
2021/06/24 06:48:37;;;;;;;16.02;13.98;;;23.30;95.20;;;;;;4926895;28;20565;-86
2021/06/24 06:51:06;;;;;;;16.33;14.38;;;23.10;95.60;;;;;;4927442;28;20357;-85
2021/06/24 06:53:35;;;;;;;18.25;14.75;;;23.00;95.90;;;;;;4925989;28;20217;-86
2021/06/24 06:56:04;;;;;;;17.40;15.20;;;22.90;96.50;;;;;;4925308;28;20421;-87
2021/06/24 06:58:41;;;;;;;15.40;13.90;;;22.80;97.20;;;;;;4918024;28;20778;-84
2021/06/24 07:01:10;;;;;;;16.55;15.00;;;22.70;97.50;;;;;;4930926;28;20209;-84
2021/06/24 07:03:40;;;;;;;17.77;15.93;;;22.60;98.10;;;;;;4929036;28;20660;-85
2021/06/24 07:06:09;;;;;;;16.63;14.82;;;22.60;98.40;;;;;;4928943;28;20217;-85
2021/06/24 07:08:38;;;;;;;17.75;16.13;;;22.60;98.20;;;;;;4928040;28;20292;-84
2021/06/24 07:11:09;;;;;;;19.10;17.13;;;22.70;97.90;;;;;;4945365;28;20244;-84
2021/06/24 07:13:40;;;;;;;19.35;16.75;;;22.70;97.60;;;;;;4930937;28;20672;-86
2021/06/24 07:16:12;;;;;;;17.55;15.85;;;22.70;98.20;;;;;;4942480;28;20237;-85
2021/06/24 07:18:43;;;;;;;21.77;18.83;;;22.60;98.40;;;;;;4939178;28;20292;-85
2021/06/24 07:21:12;;;;;;;26.95;21.83;;;22.60;99.50;;;;;;4946334;28;20205;-83
2021/06/24 07:23:41;;;;;;;27.08;23.17;;;22.60;99.90;;;;;;4946082;28;20232;-85
2021/06/24 07:26:10;;;;;;;27.02;24.08;;;22.50;99.90;;;;;;4944996;28;20209;-84
2021/06/24 07:28:40;;;;;;;25.98;22.33;;;22.40;99.90;;;;;;4944221;28;20280;-84
2021/06/24 07:31:10;;;;;;;25.92;21.60;;;22.30;99.90;;;;;;4935782;28;20236;-86
2021/06/24 07:33:39;;;;;;;18.52;12.82;;;22.20;99.90;;;;;;4927701;28;20411;-84
2021/06/24 07:36:08;;;;;;;14.80;7.07;;;21.90;99.90;;;;;;4919504;28;20806;-85
2021/06/24 07:38:42;;;;;;;14.83;6.47;;;21.30;99.90;;;;;;4914903;28;20308;-85
2021/06/24 07:41:10;;;;;;;11.20;5.70;;;20.60;99.90;;;;;;4912855;28;20212;-84
2021/06/24 07:43:41;;;;;;;10.27;5.43;;;20.10;99.90;;;;;;4911205;28;20216;-84
2021/06/24 07:46:09;;;;;;;11.07;5.70;;;19.70;99.90;;;;;;4918320;28;20979;-81
2021/06/24 07:48:40;;;;;;;9.33;5.00;;;19.40;99.90;;;;;;4940676;28;20500;-84
2021/06/24 07:51:09;;;;;;;7.93;4.83;;;19.20;99.90;;;;;;4929473;28;20220;-82
2021/06/24 07:53:42;;;;;;;7.93;4.90;;;19.10;99.90;;;;;;4940159;28;20284;-82
2021/06/24 07:56:11;;;;;;;9.73;5.67;;;19.00;99.90;;;;;;4923211;28;20225;-84
2021/06/24 07:58:50;;;;;;;9.67;5.30;;;18.90;99.90;;;;;;4922028;28;20216;-82
2021/06/24 08:01:20;;;;;;;12.27;6.27;;;18.80;99.90;;;;;;4926994;28;20574;-81
2021/06/24 08:03:55;;;;;;;10.37;5.77;;;18.60;99.90;;;;;;4928715;28;20305;-81
2021/06/24 08:06:24;;;;;;;10.80;6.50;;;18.50;99.90;;;;;;4925804;28;20217;-82
2021/06/24 08:08:56;;;;;;;10.33;6.93;;;18.50;99.90;;;;;;4916472;28;20245;-82
2021/06/24 08:11:26;;;;;;;11.20;7.30;;;18.50;99.90;;;;;;4925230;29;20601;-81
2021/06/24 08:13:56;;;;;;;9.30;8.00;;;18.50;99.90;;;;;;4916172;28;20205;-81
2021/06/24 08:16:27;;;;;;;11.20;8.17;;;18.60;99.90;;;;;;4919446;28;20244;-84
2021/06/24 08:18:56;;;;;;;12.27;9.00;;;18.60;99.90;;;;;;4919227;28;20665;-82
2021/06/24 08:21:25;;;;;;;13.67;10.00;;;18.70;99.90;;;;;;4923973;28;20210;-81
2021/06/24 08:23:54;;;;;;;13.60;10.90;;;18.80;99.90;;;;;;4924144;28;21649;-85
2021/06/24 08:26:25;;;;;;;17.00;11.90;;;18.80;99.90;;;;;;4923769;28;20288;-82
2021/06/24 08:28:56;;;;;;;14.73;10.17;;;18.80;99.90;;;;;;4936137;28;20208;-88
2021/06/24 08:31:25;;;;;;;14.47;11.57;;;18.90;99.90;;;;;;4940070;28;20813;-81
2021/06/24 08:33:54;;;;;;;16.73;12.40;;;18.90;99.90;;;;;;4935457;28;20252;-83
2021/06/24 08:36:23;;;;;;;14.73;11.80;;;19.00;99.90;;;;;;4938789;28;20766;-84
2021/06/24 08:38:53;;;;;;;19.03;12.63;;;19.00;99.90;;;;;;4934448;28;20216;-83
2021/06/24 08:41:25;;;;;;;19.53;13.57;;;19.10;99.90;;;;;;4949896;28;20212;-84
2021/06/24 08:43:58;;;;;;;15.00;10.57;;;19.00;99.90;;;;;;4948223;28;20197;-82
2021/06/24 08:46:28;;;;;;;15.67;10.03;;;18.90;99.90;;;;;;4945753;28;20243;-83
2021/06/24 08:48:58;;;;;;;15.83;10.23;;;18.80;99.90;;;;;;4954056;28;20202;-85
2021/06/24 08:51:27;;;;;;;15.00;8.93;;;18.80;99.90;;;;;;4949121;28;20205;-83
2021/06/24 08:53:56;;;;;;;13.93;9.83;;;18.80;99.90;;;;;;4954135;28;20224;-81
2021/06/24 08:56:26;;;;;;;17.03;10.13;;;18.80;99.90;;;;;;4954442;28;20204;-85
2021/06/24 08:58:59;;;;;;;16.07;11.23;;;19.00;99.90;;;;;;4954694;28;20190;-82
2021/06/24 09:01:54;;;;;;;16.50;11.00;;;19.00;99.90;;;;;;4938953;28;20209;-81
2021/06/24 09:04:32;;;;;;;17.47;9.90;;;19.10;99.90;;;;;;4933979;28;20603;-81
2021/06/24 09:07:09;;;;;;;15.87;9.80;;;19.00;99.90;;;;;;4932357;28;20672;-84
2021/06/24 09:09:40;;;;;;;16.53;10.07;;;19.00;99.90;;;;;;4928628;28;20635;-82
2021/06/24 09:12:15;;;;;;;13.87;9.33;;;19.10;99.90;;;;;;4933703;28;20201;-83
2021/06/24 09:14:48;;;;;;;12.10;8.50;;;19.20;99.90;;;;;;4929272;28;20220;-83
2021/06/24 09:17:35;;;;;;;12.87;8.80;;;19.20;99.90;;;;;;4925560;28;20675;-83
2021/06/24 09:20:33;;;;;;;13.00;8.10;;;19.20;99.90;;;;;;4932244;28;20202;-84
2021/06/24 09:23:06;;;;;;;12.50;7.60;;;19.20;99.90;;;;;;4931953;28;20205;-82
2021/06/24 09:25:38;;;;;;;9.73;7.73;;;19.30;99.90;;;;;;4934224;28;20206;-82
2021/06/24 09:28:09;;;;;;;12.50;7.70;;;19.30;99.90;;;;;;4929047;28;20209;-83
2021/06/24 09:30:41;;;;;;;13.07;8.17;;;19.20;99.90;;;;;;4954459;28;20527;-84
2021/06/24 09:33:13;;;;;;;15.97;8.17;;;19.30;99.90;;;;;;4949337;28;20209;-83
2021/06/24 09:35:53;;;;;;;13.60;8.07;;;19.30;99.90;;;;;;4941367;28;20706;-81
2021/06/24 09:38:22;;;;;;;14.97;8.13;;;19.50;99.90;;;;;;4940847;28;20205;-82
2021/06/24 09:40:53;;;;;;;14.93;7.73;;;19.60;99.90;;;;;;4951952;28;20237;-82
2021/06/24 09:43:36;;;;;;;12.87;7.80;;;19.70;99.90;;;;;;4953449;28;20571;-81
2021/06/24 09:46:12;;;;;;;9.33;7.00;;;20.00;99.90;;;;;;4941989;28;20214;-82
2021/06/24 09:48:43;;;;;;;13.03;7.57;;;20.20;99.90;;;;;;4936181;29;20873;-84
2021/06/24 09:51:20;;;;;;;13.03;6.93;;;20.30;99.90;;;;;;4940470;29;20431;-84
2021/06/24 09:53:57;;;;;;;13.53;6.70;;;20.50;99.90;;;;;;4948495;29;20248;-81
2021/06/24 09:56:31;;;;;;;11.50;6.43;;;20.70;99.90;;;;;;4932550;28;20284;-82
2021/06/24 09:59:06;;;;;;;10.73;6.15;;;20.90;99.90;;;;;;4903061;28;21254;-84
2021/06/24 10:01:42;;;;;;;10.40;6.95;;;21.10;99.90;;;;;;4938419;28;20210;-84
2021/06/24 10:04:20;;;;;;;10.57;5.82;;;21.20;99.90;;;;;;4934131;28;20205;-86
2021/06/24 10:06:50;;;;;;;7.43;5.25;;;21.50;99.90;;;;;;4921104;28;20484;-84
2021/06/24 10:09:20;;;;;;;7.95;6.20;;;21.40;99.90;;;;;;4938738;28;20209;-82
2021/06/24 10:11:55;;;;;;;8.20;5.85;;;21.40;99.90;;;;;;4945694;28;20217;-82
2021/06/24 10:14:25;;;;;;;9.43;5.85;;;21.40;99.90;;;;;;4938036;28;20309;-83
2021/06/24 10:16:58;;;;;;;10.20;5.65;;;21.60;99.90;;;;;;4931345;28;20300;-83
2021/06/24 10:19:29;;;;;;;9.10;5.75;;;21.90;99.90;;;;;;4946961;28;20335;-84
2021/06/24 10:22:01;;;;;;;8.43;5.43;;;21.90;99.90;;;;;;4934951;28;20376;-83
2021/06/24 10:24:33;;;;;;;7.70;5.88;;;22.00;99.90;;;;;;4951263;28;20205;-84
2021/06/24 10:27:09;;;;;;;7.38;5.25;;;22.00;99.90;;;;;;4934932;28;20572;-85
2021/06/24 10:29:49;;;;;;;7.65;5.25;;;22.30;99.90;;;;;;4930098;28;20441;-84
2021/06/24 10:32:28;;;;;;;7.13;5.82;;;22.50;99.90;;;;;;4935307;28;20216;-85
2021/06/24 10:34:58;;;;;;;7.53;5.13;;;22.70;99.90;;;;;;4931603;28;20217;-84
2021/06/24 10:37:28;;;;;;;7.22;4.90;;;22.90;99.00;;;;;;4935411;28;20237;-84
2021/06/24 10:40:00;;;;;;;7.18;5.00;;;23.00;98.90;;;;;;4930348;29;20402;-84
2021/06/24 10:42:32;;;;;;;9.30;5.22;;;22.80;97.90;;;;;;4935946;28;20209;-85
2021/06/24 10:45:03;;;;;;;6.28;4.75;;;22.70;98.90;;;;;;4930399;28;20229;-85
2021/06/24 10:47:43;;;;;;;5.85;4.40;;;22.90;99.90;;;;;;4934259;28;20802;-84
2021/06/24 10:50:43;;;;;;;7.40;4.90;;;23.00;98.70;;;;;;4933328;29;20209;-84
2021/06/24 10:53:53;;;;;;;7.38;4.60;;;23.00;98.80;;;;;;4936279;28;20209;-86
2021/06/24 10:56:48;;;;;;;9.07;5.10;;;23.10;99.00;;;;;;4932042;28;20210;-84
2021/06/24 10:59:31;;;;;;;6.55;4.68;;;23.30;97.90;;;;;;4938075;28;20212;-84
2021/06/24 11:02:12;;;;;;;7.53;4.70;;;23.40;97.00;;;;;;4918610;28;20729;-85
2021/06/24 11:04:49;;;;;;;6.53;5.00;;;23.50;97.10;;;;;;4916979;28;20739;-85
2021/06/24 11:07:34;;;;;;;6.90;5.25;;;23.60;94.20;;;;;;4912909;28;20318;-85
2021/06/24 11:10:25;;;;;;;5.82;4.78;;;23.80;95.00;;;;;;4924421;28;20202;-87
2021/06/24 11:13:03;;;;;;;6.55;5.00;;;23.90;95.50;;;;;;4920470;28;20252;-85
2021/06/24 11:15:53;;;;;;;8.07;5.30;;;23.60;94.60;;;;;;4915613;28;21380;-85
2021/06/24 11:18:57;;;;;;;6.43;4.50;;;23.50;95.50;;;;;;4911409;28;20574;-85
2021/06/24 11:21:56;;;;;;;6.38;4.95;;;23.60;97.00;;;;;;4917643;28;20205;-86
2021/06/24 11:24:26;;;;;;;7.32;5.32;;;23.50;95.90;;;;;;4906055;28;20884;-83
2021/06/24 11:26:57;;;;;;;6.53;5.18;;;23.60;96.20;;;;;;4902648;28;20224;-84
2021/06/24 11:29:43;;;;;;;7.32;4.95;;;23.80;96.50;;;;;;4911477;28;20225;-85
2021/06/24 11:32:16;;;;;;;7.95;4.80;;;24.10;95.60;;;;;;4919552;28;20779;-86
2021/06/24 11:34:54;;;;;;;6.40;5.07;;;24.10;93.80;;;;;;4913056;28;20299;-83
2021/06/24 11:37:28;;;;;;;6.00;4.63;;;24.20;94.00;;;;;;4913037;29;20430;-86
2021/06/24 11:39:58;;;;;;;7.55;4.75;;;24.30;94.20;;;;;;4915445;28;20865;-85
2021/06/24 11:42:38;;;;;;;9.38;5.18;;;24.30;94.50;;;;;;4922155;28;20835;-84
2021/06/24 11:45:09;;;;;;;6.68;4.85;;;24.50;94.60;;;;;;4914377;28;21049;-86
2021/06/24 11:47:39;;;;;;;6.32;4.78;;;24.70;93.10;;;;;;4907696;29;20233;-84
2021/06/24 12:04:27;;;;;;;6.95;4.78;;;25.50;91.60;;;;;;4934573;28;20546;-88
2021/06/24 12:06:59;;;;;;;8.32;4.97;;;25.60;91.70;;;;;;4925519;28;20212;-88
2021/06/24 12:09:48;;;;;;;4.80;4.30;;;25.70;91.30;;;;;;4910419;28;20290;-83
2021/06/24 12:12:19;;;;;;;5.28;4.28;;;25.70;90.90;;;;;;4891072;28;20236;-86
2021/06/24 12:14:50;;;;;;;6.57;4.28;;;25.60;90.80;;;;;;4919316;28;20213;-83
2021/06/24 12:17:22;;;;;;;4.88;4.15;;;25.80;90.60;;;;;;4904199;28;20205;-87
2021/06/24 12:19:54;;;;;;;5.13;4.32;;;25.90;89.80;;;;;;4911180;28;20751;-83
2021/06/24 12:22:25;;;;;;;7.53;4.65;;;26.30;90.50;;;;;;4908829;28;20450;-85
2021/06/24 12:24:55;;;;;;;6.05;4.28;;;26.30;90.90;;;;;;4922040;29;20466;-85
2021/06/24 12:27:27;;;;;;;7.65;4.38;;;26.30;90.60;;;;;;4925083;28;20273;-87
2021/06/24 12:30:00;;;;;;;5.32;3.70;;;26.40;89.90;;;;;;4931059;28;20311;-83
2021/06/24 12:32:30;;;;;;;5.35;4.00;;;26.60;88.50;;;;;;4936001;28;20471;-82
2021/06/24 12:35:00;;;;;;;6.80;4.03;;;26.90;88.80;;;;;;4938075;28;20213;-84
2021/06/24 12:37:42;;;;;;;9.55;4.40;;;27.10;88.10;;;;;;4934149;28;20633;-85
2021/06/24 12:40:16;;;;;;;7.90;4.75;;;27.20;86.80;;;;;;4944662;28;20204;-85
2021/06/24 12:42:46;;;;;;;5.10;3.75;;;27.30;86.00;;;;;;4941856;28;20213;-82
2021/06/24 12:45:35;;;;;;;6.72;4.10;;;27.30;86.00;;;;;;4924493;28;20964;-83
2021/06/24 12:48:05;;;;;;;11.10;4.25;;;27.10;86.20;;;;;;4907754;28;20229;-85
2021/06/24 12:50:36;;;;;;;6.47;4.30;;;27.20;86.50;;;;;;4920973;28;20202;-82
2021/06/24 12:53:09;;;;;;;7.53;4.63;;;27.40;87.70;;;;;;4917280;28;20323;-85
2021/06/24 12:55:47;;;;;;;5.65;4.03;;;27.80;86.50;;;;;;4912450;28;20241;-85
2021/06/24 12:58:18;;;;;;;5.10;4.20;;;28.10;86.00;;;;;;4917355;28;20213;-86
2021/06/24 13:01:00;;;;;;;7.53;3.95;;;28.20;86.30;;;;;;4934353;28;20211;-85
2021/06/24 13:03:41;;;;;;;5.53;4.45;;;28.60;85.20;;;;;;4913145;28;20380;-85
2021/06/24 13:06:22;;;;;;;8.50;4.18;;;28.80;84.60;;;;;;4913375;28;20312;-85
2021/06/24 13:09:00;;;;;;;5.60;3.85;;;29.10;84.80;;;;;;4911164;28;20628;-85
2021/06/24 13:11:33;;;;;;;7.53;4.00;;;29.30;84.40;;;;;;4912678;28;20594;-84